Garden City, KS

5:42 AM CDT on October 31, 2014 (GMT -0500)
Garden City Regional | Change Station
CLOSE
Current Station
Airport
Location: Garden City,
Elevation: 2890 ft
Nearby Weather Stations
Active Advisory: Freeze Warning

Elev 2890 ft 37.93 °N, 100.72 °W | Updated 48 minutes ago

Clear
Clear
36 °F
Feels Like 28 °F
N
13
Wind Variable Wind from NNE

Today
High -- | Low -- °F
--% Chance of Precip.
Yesterday
High -- | Low -- °F
Precip. -- in
8:07 AM 6:44 PM
First Quarter, 54% visible
Pressure 30.43 in
Visibility 10.0 miles
Clouds Clear
Windchill 28 °F
Dew Point 31 °F
Humidity 82%
Rainfall 0.00 in
Snow Depth Not available.
UV 0 out of 12
Pollen 2.40 out of 12
Air Quality Not available.
Flu Activity Not available.
METAR KGCK 310954Z AUTO 03011KT 10SM CLR 02/M01 A3044 RMK AO2 SLP302 T00221006

More Conditions Fewer Conditions

Pressure 30.43 in
Visibility 10.0 miles
Clouds Clear
Windchill 28 °F
Dew Point 31 °F
Humidity 82%
Rainfall 0.00 in
Snow Depth Not available.
UV 0 out of 12
Pollen 2.40 out of 12
Air Quality Not available.
Flu Activity Not available.
METAR KGCK 310954Z AUTO 03011KT 10SM CLR 02/M01 A3044 RMK AO2 SLP302 T00221006

More Conditions Fewer Conditions

10-Day Weather Forecast

Almanac

Astronomy

Oct. 31, 2014 Rise Set
Actual Time
Civil Twilight
Nautical Twilight
Astronomical Twilight
Moon
Length of Visible Light
Length of Day
Tomorrow will be .
, % of the Moon is Illuminated

Today's Extremes

State Highs State Lows

Community

WunderPhotos

Upload Photos

1,766,580 photos uploaded!

WunderBlogs® & News

Nearby

Air Quality

  Air Quality AQ Index Pollutant
Not available.

Snow Depth

Station Depth Elevation

Earthquake Activity

City Distance Mag. Time & Date
Minimum magnitude displayed is 2.5.

Coastal Water Temperatures

Place Temperature

Nearby Weather Stations